createdAt,value
2024-01-01T00:00:48.660Z,5.27
2024-01-01T00:03:18.986Z,5.24
2024-01-01T00:05:47.291Z,5.28
2024-01-01T00:08:15.815Z,5.48
2024-01-01T00:10:45.480Z,5.36
2024-01-01T00:13:15.457Z,5.30
2024-01-01T00:15:44.187Z,5.28
2024-01-01T00:18:14.796Z,5.42
2024-01-01T00:20:43.302Z,5.54
2024-01-01T00:23:11.789Z,5.57
2024-01-01T00:25:40.181Z,5.48
2024-01-01T00:28:08.804Z,5.51
2024-01-01T00:30:40.420Z,5.61
2024-01-01T00:33:08.757Z,5.64
2024-01-01T00:35:37.038Z,5.53
2024-01-01T00:38:05.889Z,5.52
2024-01-01T00:40:34.341Z,5.52
2024-01-01T00:43:02.619Z,5.62
2024-01-01T00:45:37.091Z,5.50
2024-01-01T00:48:12.866Z,5.63
2024-01-01T00:50:41.120Z,5.55
2024-01-01T00:53:09.448Z,5.62
2024-01-01T00:55:37.910Z,5.53
2024-01-01T00:58:08.074Z,5.60
2024-01-01T01:00:37.216Z,5.58
2024-01-01T01:03:06.234Z,5.53
2024-01-01T01:05:35.997Z,5.60
2024-01-01T01:08:04.860Z,5.47
2024-01-01T01:10:33.634Z,5.37
2024-01-01T01:13:02.053Z,5.53
2024-01-01T01:15:30.935Z,5.42
2024-01-01T01:17:59.626Z,5.35
2024-01-01T01:20:27.936Z,5.40
2024-01-01T01:22:57.621Z,5.46
2024-01-01T01:25:26.177Z,5.53
2024-01-01T01:27:54.390Z,5.46
2024-01-01T01:30:22.695Z,5.31
2024-01-01T01:32:51.310Z,5.42
2024-01-01T01:35:19.651Z,5.38
2024-01-01T01:37:47.880Z,5.36
2024-01-01T01:40:17.467Z,5.38
2024-01-01T01:42:48.021Z,5.37
2024-01-01T01:45:16.547Z,5.44
2024-01-01T01:47:45.015Z,5.41
2024-01-01T01:50:13.614Z,5.52
2024-01-01T01:52:42.202Z,5.51
2024-01-01T01:55:11.121Z,5.45
2024-01-01T01:57:41.739Z,5.42
2024-01-01T02:00:11.624Z,5.41
2024-01-01T02:02:43.945Z,5.33
2024-01-01T02:05:12.508Z,5.37
2024-01-01T02:07:42.471Z,5.46
2024-01-01T02:10:11.176Z,5.40
2024-01-01T02:12:41.283Z,5.23
2024-01-01T02:15:10.619Z,4.87
2024-01-01T02:17:38.938Z,5.07
2024-01-01T02:20:16.551Z,4.85
2024-01-01T02:22:48.823Z,4.75
2024-01-01T02:25:18.674Z,5.02
2024-01-01T02:27:47.127Z,4.88
2024-01-01T02:30:15.459Z,4.93
2024-01-01T02:32:43.843Z,4.86
2024-01-01T02:35:12.292Z,4.74
2024-01-01T02:37:40.818Z,4.83
2024-01-01T02:40:10.257Z,4.88
2024-01-01T02:42:39.937Z,4.84
2024-01-01T02:45:09.623Z,4.88
2024-01-01T02:47:39.042Z,4.78
2024-01-01T02:50:08.719Z,4.89
2024-01-01T02:52:37.179Z,4.98
2024-01-01T02:55:06.149Z,4.85
2024-01-01T02:57:34.394Z,4.93
2024-01-01T03:00:04.918Z,4.87
2024-01-01T03:02:33.268Z,4.96
2024-01-01T03:05:01.685Z,4.95
2024-01-01T03:07:29.984Z,4.87
2024-01-01T03:09:58.228Z,5.09
2024-01-01T03:12:26.606Z,4.91
2024-01-01T03:14:54.960Z,5.03
2024-01-01T03:17:24.863Z,4.67
2024-01-01T03:19:53.158Z,4.44
2024-01-01T03:22:21.513Z,4.55
2024-01-01T03:24:49.744Z,4.51
2024-01-01T03:27:18.275Z,4.67
2024-01-01T03:29:47.032Z,4.88
2024-01-01T03:32:15.459Z,4.63
2024-01-01T03:34:45.627Z,4.78
2024-01-01T03:37:13.909Z,4.66
2024-01-01T03:39:42.208Z,4.75
2024-01-01T03:42:10.462Z,4.83
2024-01-01T03:44:39.068Z,4.76
2024-01-01T03:47:07.525Z,4.76
2024-01-01T03:49:35.937Z,4.79
2024-01-01T03:52:05.748Z,4.76
2024-01-01T03:54:36.429Z,4.75
2024-01-01T03:57:05.234Z,4.70
2024-01-01T03:59:33.538Z,4.54
2024-01-01T04:02:01.814Z,4.60
2024-01-01T04:04:30.069Z,4.64
2024-01-01T04:06:58.938Z,4.65
2024-01-01T04:09:28.530Z,4.59
2024-01-01T04:11:56.818Z,4.67
2024-01-01T04:14:25.331Z,4.69
2024-01-01T04:16:53.728Z,4.78
2024-01-01T04:19:22.934Z,4.68
2024-01-01T04:21:51.161Z,4.55
2024-01-01T04:24:19.395Z,4.60
2024-01-01T04:26:49.005Z,4.69
2024-01-01T04:29:17.489Z,4.65
2024-01-01T04:31:47.408Z,4.58
2024-01-01T04:34:15.760Z,4.55
2024-01-01T04:36:45.419Z,4.56
2024-01-01T04:39:13.758Z,4.33
2024-01-01T04:41:42.309Z,4.37
2024-01-01T04:44:12.031Z,4.22
2024-01-01T04:46:40.352Z,4.38
2024-01-01T04:49:08.775Z,4.31
2024-01-01T04:51:37.177Z,4.30
2024-01-01T04:54:05.468Z,4.23
2024-01-01T04:56:33.718Z,4.17
2024-01-01T04:59:02.783Z,4.26
2024-01-01T05:01:32.393Z,4.27
2024-01-01T05:04:00.672Z,4.24
2024-01-01T05:06:29.040Z,4.18
2024-01-01T05:08:57.286Z,4.18
2024-01-01T05:11:25.597Z,4.22
2024-01-01T05:13:53.902Z,4.21
2024-01-01T05:16:22.168Z,4.11
2024-01-01T05:18:51.772Z,4.17
2024-01-01T05:21:20.079Z,4.22
2024-01-01T05:23:48.335Z,3.99
2024-01-01T05:26:16.713Z,4.19
2024-01-01T05:28:45.117Z,4.14
2024-01-01T05:31:13.450Z,4.12
2024-01-01T05:33:41.982Z,4.21
2024-01-01T05:36:15.094Z,4.13
2024-01-01T05:38:43.699Z,4.22
2024-01-01T05:41:12.847Z,4.20
2024-01-01T05:43:41.228Z,4.23
2024-01-01T05:46:09.534Z,4.33
2024-01-01T05:48:41.042Z,4.29
2024-01-01T05:51:10.820Z,4.25
2024-01-01T05:53:40.404Z,4.24
2024-01-01T05:56:09.167Z,4.29
2024-01-01T05:58:37.609Z,4.39
2024-01-01T06:01:06.140Z,4.40
2024-01-01T06:03:34.471Z,4.50
2024-01-01T06:06:03.184Z,4.37
2024-01-01T06:08:31.467Z,4.60
2024-01-01T06:11:01.107Z,4.71
2024-01-01T06:13:29.404Z,4.72
2024-01-01T06:15:57.915Z,4.63
2024-01-01T06:18:27.875Z,4.63
2024-01-01T06:20:56.300Z,4.68
2024-01-01T06:23:24.623Z,4.75
2024-01-01T06:25:54.095Z,4.88
2024-01-01T06:28:23.721Z,4.92
2024-01-01T06:30:52.461Z,4.96
2024-01-01T06:33:20.991Z,5.00
2024-01-01T06:35:49.497Z,5.09
2024-01-01T06:38:18.480Z,5.08
2024-01-01T06:40:46.785Z,5.11
2024-01-01T06:43:15.454Z,5.02
2024-01-01T06:45:45.133Z,5.06
2024-01-01T06:48:13.618Z,4.97
2024-01-01T06:50:41.962Z,5.08
2024-01-01T06:53:10.248Z,5.18
2024-01-01T06:55:38.537Z,5.04
2024-01-01T06:58:07.027Z,5.13
2024-01-01T07:00:35.486Z,5.27
2024-01-01T07:03:05.725Z,5.27
2024-01-01T07:05:35.411Z,5.21
2024-01-01T07:08:05.270Z,5.12
2024-01-01T07:10:33.728Z,5.24
2024-01-01T07:13:02.200Z,5.19
2024-01-01T07:15:30.440Z,5.24
2024-01-01T07:18:00.711Z,5.07
2024-01-01T07:20:30.542Z,5.32
2024-01-01T07:22:58.788Z,5.32
2024-01-01T07:25:27.027Z,5.40
2024-01-01T07:27:56.079Z,5.40
2024-01-01T07:30:24.329Z,5.52
2024-01-01T07:32:52.583Z,5.56
2024-01-01T07:35:21.005Z,5.53
2024-01-01T07:37:51.990Z,5.51
2024-01-01T07:40:20.393Z,5.29
2024-01-01T07:42:48.722Z,5.41
2024-01-01T07:45:17.098Z,5.42
2024-01-01T07:47:45.511Z,5.46
2024-01-01T07:50:13.875Z,5.47
2024-01-01T07:52:42.153Z,5.37
2024-01-01T07:55:13.322Z,5.50
2024-01-01T07:57:41.749Z,5.38
2024-01-01T08:00:13.034Z,5.37
2024-01-01T08:02:41.283Z,5.35
2024-01-01T08:05:09.801Z,5.41
2024-01-01T08:07:38.190Z,5.34
2024-01-01T08:10:07.525Z,5.49
2024-01-01T08:12:37.091Z,5.59
2024-01-01T08:15:06.309Z,5.41
2024-01-01T08:17:34.635Z,5.46
2024-01-01T08:20:03.089Z,5.52
2024-01-01T08:22:31.496Z,5.57
2024-01-01T08:24:59.871Z,5.52
2024-01-01T08:27:28.105Z,5.56
2024-01-01T08:29:57.691Z,5.73
2024-01-01T08:32:25.999Z,5.82
2024-01-01T08:34:54.312Z,5.87
2024-01-01T08:37:22.618Z,5.93
2024-01-01T08:39:51.168Z,6.05
2024-01-01T08:42:19.478Z,6.02
2024-01-01T08:44:47.795Z,6.07
2024-01-01T08:47:17.742Z,6.04
2024-01-01T08:49:46.061Z,6.07
2024-01-01T08:52:14.294Z,6.28
2024-01-01T08:54:42.537Z,6.29
2024-01-01T08:57:10.761Z,6.27
2024-01-01T08:59:40.655Z,6.46
2024-01-01T09:02:09.201Z,6.50
2024-01-01T09:04:38.896Z,6.69
2024-01-01T09:07:07.196Z,6.43
2024-01-01T09:09:36.383Z,6.64
2024-01-01T09:12:04.981Z,6.64
2024-01-01T09:14:33.317Z,6.69
2024-01-01T09:17:01.698Z,6.84
2024-01-01T09:19:30.001Z,6.72
2024-01-01T09:21:59.601Z,6.80
2024-01-01T09:24:27.808Z,6.91
2024-01-01T09:26:56.070Z,7.02
2024-01-01T09:29:24.597Z,7.13
2024-01-01T09:31:53.579Z,7.09
2024-01-01T09:34:21.821Z,6.99
2024-01-01T09:36:57.606Z,7.07
2024-01-01T09:39:33.039Z,7.01
2024-01-01T09:42:03.494Z,7.30
2024-01-01T09:44:31.845Z,7.37
2024-01-01T09:47:00.255Z,7.51
2024-01-01T09:49:28.730Z,7.59
2024-01-01T09:51:58.505Z,7.55
2024-01-01T09:54:26.788Z,7.74
2024-01-01T09:56:56.428Z,7.91
2024-01-01T09:59:38.645Z,7.95
2024-01-01T10:02:08.910Z,8.09
2024-01-01T10:04:38.052Z,8.13
2024-01-01T10:07:06.944Z,8.32
2024-01-01T10:09:39.377Z,8.40
2024-01-01T10:12:11.213Z,8.46
2024-01-01T10:14:47.763Z,8.17
2024-01-01T10:17:18.888Z,8.16
2024-01-01T10:19:52.391Z,8.26
2024-01-01T10:22:22.213Z,8.26
2024-01-01T10:24:53.493Z,8.12
2024-01-01T10:27:23.817Z,7.96
2024-01-01T10:29:52.627Z,8.14
2024-01-01T10:32:21.347Z,8.09
2024-01-01T10:34:50.136Z,8.09
2024-01-01T10:37:20.169Z,7.96
2024-01-01T10:39:49.648Z,7.87
2024-01-01T10:42:18.652Z,8.08
2024-01-01T10:44:48.479Z,8.13
2024-01-01T10:47:21.023Z,8.04
2024-01-01T10:49:54.023Z,8.07
2024-01-01T10:52:37.949Z,8.11
2024-01-01T10:55:35.992Z,8.01
2024-01-01T10:58:20.122Z,8.04
2024-01-01T11:01:00.795Z,8.24
2024-01-01T11:03:29.398Z,8.10
2024-01-01T11:05:57.643Z,8.13
2024-01-01T11:08:29.542Z,8.09
2024-01-01T11:10:57.931Z,7.92
2024-01-01T11:13:57.831Z,7.84
2024-01-01T11:16:27.652Z,7.79
2024-01-01T11:18:56.159Z,7.65
2024-01-01T11:21:29.151Z,7.37
2024-01-01T11:24:14.317Z,7.30
2024-01-01T11:26:46.021Z,7.27
2024-01-01T11:29:28.701Z,7.42
2024-01-01T11:32:05.646Z,7.40
2024-01-01T11:34:43.741Z,7.36
2024-01-01T11:37:22.135Z,7.40
2024-01-01T11:39:59.106Z,7.45
2024-01-01T11:42:27.962Z,7.62
2024-01-01T11:45:09.909Z,7.59
2024-01-01T11:47:40.223Z,7.53
2024-01-01T11:50:10.578Z,7.49
2024-01-01T11:52:40.023Z,7.60
2024-01-01T11:55:08.985Z,7.55
2024-01-01T11:57:37.369Z,7.47
2024-01-01T12:00:07.037Z,7.34
2024-01-01T12:02:39.812Z,7.17
2024-01-01T12:05:10.145Z,6.85
2024-01-01T12:07:38.726Z,6.95
2024-01-01T12:10:09.979Z,7.04
2024-01-01T12:12:39.484Z,6.96
2024-01-01T12:15:12.962Z,6.97
2024-01-01T12:17:44.540Z,7.15
2024-01-01T12:20:16.125Z,7.04
2024-01-01T12:22:45.168Z,7.11
2024-01-01T12:25:17.813Z,7.00
2024-01-01T12:28:01.288Z,6.98
2024-01-01T12:30:29.814Z,6.97
2024-01-01T12:33:00.164Z,6.91
2024-01-01T12:35:29.128Z,6.76
2024-01-01T12:37:58.094Z,6.91
2024-01-01T12:40:29.800Z,6.94
2024-01-01T12:42:58.338Z,7.09
2024-01-01T12:45:27.263Z,7.11
2024-01-01T12:47:56.115Z,6.92
2024-01-01T12:50:25.789Z,6.92
2024-01-01T12:52:54.218Z,6.94
2024-01-01T12:55:22.556Z,7.07
2024-01-01T12:57:50.856Z,6.72
2024-01-01T13:00:19.341Z,6.88
2024-01-01T13:02:47.627Z,7.01
2024-01-01T13:05:16.009Z,6.94
2024-01-01T13:07:45.673Z,7.00
2024-01-01T13:10:14.151Z,6.80
2024-01-01T13:12:42.399Z,6.78
2024-01-01T13:15:10.915Z,6.75
2024-01-01T13:17:40.634Z,6.79
2024-01-01T13:20:11.188Z,6.86
2024-01-01T13:22:39.514Z,6.76
2024-01-01T13:25:09.477Z,6.78
2024-01-01T13:27:37.780Z,6.83
2024-01-01T13:30:07.233Z,6.84
2024-01-01T13:32:35.608Z,6.98
2024-01-01T13:35:04.026Z,7.10
2024-01-01T13:37:32.308Z,7.01
2024-01-01T13:40:01.452Z,7.02
2024-01-01T13:42:31.224Z,6.88
2024-01-01T13:44:59.574Z,6.81
2024-01-01T13:47:28.493Z,6.94
2024-01-01T13:49:56.809Z,6.78
2024-01-01T13:52:25.859Z,6.81
2024-01-01T13:54:54.113Z,6.74
2024-01-01T13:57:22.339Z,6.77
2024-01-01T13:59:51.891Z,6.82
2024-01-01T14:02:20.449Z,6.77
2024-01-01T14:04:48.771Z,6.71
2024-01-01T14:07:17.006Z,6.80
2024-01-01T14:09:45.218Z,6.77
2024-01-01T14:12:13.464Z,6.84
2024-01-01T14:14:44.762Z,6.92
2024-01-01T14:17:14.357Z,6.84
2024-01-01T14:19:42.644Z,6.65
2024-01-01T14:22:11.187Z,6.77
2024-01-01T14:24:39.478Z,6.68
2024-01-01T14:27:10.915Z,6.77
2024-01-01T14:29:39.384Z,6.63
2024-01-01T14:32:07.994Z,6.73
2024-01-01T14:34:38.991Z,6.68
2024-01-01T14:37:08.306Z,6.74
2024-01-01T14:39:37.069Z,6.73
2024-01-01T14:42:05.968Z,6.75
2024-01-01T14:44:34.636Z,6.68
2024-01-01T14:47:04.757Z,6.72
2024-01-01T14:49:33.087Z,6.73
2024-01-01T14:52:03.332Z,6.60
2024-01-01T14:54:31.708Z,6.79
2024-01-01T14:56:59.992Z,6.56
2024-01-01T14:59:28.335Z,6.62
2024-01-01T15:01:59.016Z,6.74
2024-01-01T15:04:27.338Z,6.78
2024-01-01T15:06:55.574Z,6.77
2024-01-01T15:09:25.159Z,6.78
2024-01-01T15:11:53.409Z,6.68
2024-01-01T15:14:21.772Z,6.83
2024-01-01T15:16:50.163Z,6.79
2024-01-01T15:19:19.665Z,6.64
2024-01-01T15:21:47.957Z,6.63
2024-01-01T15:24:17.328Z,6.69
2024-01-01T15:26:46.940Z,6.67
2024-01-01T15:29:15.227Z,6.77
2024-01-01T15:31:43.590Z,6.64
2024-01-01T15:34:11.855Z,6.73
2024-01-01T15:36:41.727Z,6.57
2024-01-01T15:39:13.639Z,6.72
2024-01-01T15:41:42.125Z,6.63
2024-01-01T15:44:11.790Z,6.55
2024-01-01T15:46:40.232Z,6.64
2024-01-01T15:49:08.578Z,6.59
2024-01-01T15:51:39.762Z,6.59
2024-01-01T15:54:08.737Z,6.63
2024-01-01T15:56:41.471Z,6.64
2024-01-01T15:59:11.246Z,6.69
2024-01-01T16:01:39.567Z,6.56
2024-01-01T16:04:07.968Z,6.49
2024-01-01T16:06:36.250Z,6.59
2024-01-01T16:09:04.858Z,6.68
2024-01-01T16:11:33.213Z,6.85
2024-01-01T16:14:01.859Z,6.99
2024-01-01T16:16:34.606Z,6.90
2024-01-01T16:19:05.073Z,6.72
2024-01-01T16:21:37.057Z,6.78
2024-01-01T16:24:05.894Z,6.82
2024-01-01T16:26:38.195Z,6.87
2024-01-01T16:29:06.558Z,6.91
2024-01-01T16:31:36.201Z,6.65
2024-01-01T16:34:05.462Z,6.76
2024-01-01T16:36:33.783Z,6.75
2024-01-01T16:39:04.112Z,6.92
2024-01-01T16:41:32.461Z,6.82
2024-01-01T16:44:00.768Z,6.81
2024-01-01T16:46:29.068Z,6.87
2024-01-01T16:48:58.920Z,6.68
2024-01-01T16:51:27.293Z,6.65
2024-01-01T16:53:55.599Z,6.67
2024-01-01T16:56:26.529Z,6.75
2024-01-01T16:58:55.087Z,6.58
2024-01-01T17:01:25.796Z,6.63
2024-01-01T17:03:54.142Z,6.56
2024-01-01T17:06:24.178Z,6.59
2024-01-01T17:08:52.456Z,6.57
2024-01-01T17:11:20.790Z,6.51
2024-01-01T17:13:49.079Z,6.58
2024-01-01T17:16:17.612Z,6.73
2024-01-01T17:18:46.251Z,6.72
2024-01-01T17:21:19.151Z,6.73
2024-01-01T17:23:50.607Z,6.58
2024-01-01T17:26:19.027Z,6.57
2024-01-01T17:28:49.467Z,6.64
2024-01-01T17:31:18.178Z,6.58
2024-01-01T17:33:46.727Z,6.68
2024-01-01T17:36:17.302Z,6.63
2024-01-01T17:38:45.948Z,6.65
2024-01-01T17:41:15.588Z,6.60
2024-01-01T17:43:46.160Z,6.64
2024-01-01T17:46:15.073Z,6.56
2024-01-01T17:48:43.434Z,6.72
2024-01-01T17:51:11.796Z,6.72
2024-01-01T17:53:40.261Z,6.70
2024-01-01T17:56:12.358Z,6.80
2024-01-01T17:58:41.953Z,6.79
2024-01-01T18:01:10.652Z,6.75
2024-01-01T18:03:39.139Z,6.76
2024-01-01T18:06:07.601Z,6.80
2024-01-01T18:08:36.400Z,6.71
2024-01-01T18:11:05.173Z,6.74
2024-01-01T18:13:33.561Z,6.76
2024-01-01T18:16:05.218Z,6.83
2024-01-01T18:18:34.629Z,6.76
2024-01-01T18:21:02.998Z,6.72
2024-01-01T18:23:31.246Z,6.81
2024-01-01T18:25:59.542Z,6.79
2024-01-01T18:28:27.806Z,6.93
2024-01-01T18:30:56.258Z,6.85
2024-01-01T18:33:25.909Z,6.70
2024-01-01T18:36:00.048Z,6.69
2024-01-01T18:38:28.546Z,6.66
2024-01-01T18:40:56.808Z,6.60
2024-01-01T18:43:25.128Z,6.65
2024-01-01T18:45:53.408Z,6.61
2024-01-01T18:48:22.035Z,6.68
2024-01-01T18:50:53.775Z,6.64
2024-01-01T18:53:22.719Z,6.59
2024-01-01T18:55:51.186Z,6.58
2024-01-01T18:58:19.730Z,6.56
2024-01-01T19:00:47.997Z,6.47
2024-01-01T19:03:16.550Z,6.45
2024-01-01T19:05:44.871Z,6.37
2024-01-01T19:08:14.541Z,6.29
2024-01-01T19:10:42.783Z,6.22
2024-01-01T19:13:11.055Z,6.31
2024-01-01T19:15:39.847Z,6.14
2024-01-01T19:18:10.730Z,6.21
2024-01-01T19:20:39.648Z,6.16
2024-01-01T19:23:08.167Z,6.21
2024-01-01T19:25:37.979Z,6.07
2024-01-01T19:28:07.045Z,6.24
2024-01-01T19:30:35.474Z,6.25
2024-01-01T19:33:05.284Z,6.40
2024-01-01T19:35:35.587Z,6.66
2024-01-01T19:38:03.986Z,6.12
2024-01-01T19:40:32.286Z,6.28
2024-01-01T19:43:01.881Z,6.23
2024-01-01T19:45:30.114Z,6.16
2024-01-01T19:47:58.654Z,5.95
2024-01-01T19:50:27.037Z,5.99
2024-01-01T19:52:55.545Z,6.16
2024-01-01T19:55:24.087Z,6.00
2024-01-01T19:57:52.519Z,6.04
2024-01-01T20:00:22.206Z,6.06
2024-01-01T20:02:50.442Z,5.87
2024-01-01T20:05:18.711Z,5.93
2024-01-01T20:07:47.014Z,5.96
2024-01-01T20:10:15.337Z,6.07
2024-01-01T20:12:43.568Z,6.03
2024-01-01T20:15:12.389Z,6.00
2024-01-01T20:17:42.065Z,5.89
2024-01-01T20:20:11.610Z,5.99
2024-01-01T20:22:41.616Z,5.96
2024-01-01T20:25:09.977Z,5.94
2024-01-01T20:27:38.260Z,5.97
2024-01-01T20:30:09.181Z,5.88
2024-01-01T20:32:37.562Z,6.02
2024-01-01T20:35:07.870Z,5.93
2024-01-01T20:37:37.120Z,5.97
2024-01-01T20:40:06.662Z,6.05
2024-01-01T20:42:36.328Z,5.98
2024-01-01T20:45:05.445Z,6.00
2024-01-01T20:47:34.087Z,5.96
2024-01-01T20:50:02.516Z,5.79
2024-01-01T20:52:39.899Z,5.91
2024-01-01T20:55:11.132Z,5.92
2024-01-01T20:57:39.674Z,5.86
2024-01-01T21:00:11.093Z,5.91
2024-01-01T21:02:41.731Z,5.93
2024-01-01T21:05:10.552Z,5.95
2024-01-01T21:07:41.867Z,6.05
2024-01-01T21:10:11.154Z,5.98
2024-01-01T21:12:40.925Z,5.95
2024-01-01T21:15:10.129Z,5.95
2024-01-01T21:17:38.714Z,6.05
2024-01-01T21:20:07.995Z,6.07
2024-01-01T21:22:36.341Z,6.00
2024-01-01T21:25:06.645Z,6.13
2024-01-01T21:27:37.087Z,6.14
2024-01-01T21:30:06.347Z,6.03
2024-01-01T21:32:34.863Z,6.11
2024-01-01T21:35:04.439Z,6.15
2024-01-01T21:37:32.803Z,6.25
2024-01-01T21:40:01.131Z,6.21
2024-01-01T21:42:30.798Z,6.23
2024-01-01T21:44:59.069Z,6.12
2024-01-01T21:47:27.445Z,6.28
2024-01-01T21:49:55.820Z,6.12
2024-01-01T21:52:24.081Z,6.05
2024-01-01T21:54:54.582Z,5.98
2024-01-01T21:57:22.876Z,6.09
2024-01-01T21:59:52.528Z,6.18
2024-01-01T22:02:21.008Z,6.14
2024-01-01T22:04:49.547Z,6.17
2024-01-01T22:07:17.971Z,6.17
2024-01-01T22:09:46.274Z,6.23
2024-01-01T22:12:15.087Z,6.20
2024-01-01T22:14:44.070Z,6.17
2024-01-01T22:17:13.672Z,6.28
2024-01-01T22:19:42.827Z,6.32
2024-01-01T22:22:11.089Z,6.15
2024-01-01T22:24:39.403Z,6.24
2024-01-01T22:27:07.645Z,6.13
2024-01-01T22:29:36.778Z,6.21
2024-01-01T22:32:05.715Z,6.13
2024-01-01T22:34:36.099Z,6.04
2024-01-01T22:37:04.872Z,6.11
2024-01-01T22:39:33.125Z,6.12
2024-01-01T22:42:01.419Z,6.11
2024-01-01T22:44:30.028Z,6.09
2024-01-01T22:46:58.360Z,6.18
2024-01-01T22:49:26.779Z,6.11
2024-01-01T22:51:56.596Z,6.15
2024-01-01T22:54:24.845Z,6.02
2024-01-01T22:56:53.221Z,5.97
2024-01-01T22:59:21.574Z,6.12
2024-01-01T23:01:50.033Z,6.11
2024-01-01T23:04:18.554Z,6.16
2024-01-01T23:06:46.799Z,6.08
2024-01-01T23:09:16.426Z,5.97
2024-01-01T23:11:45.086Z,5.86
2024-01-01T23:14:14.794Z,5.80
2024-01-01T23:16:43.101Z,5.80
2024-01-01T23:19:11.364Z,5.87
2024-01-01T23:21:44.121Z,5.98
2024-01-01T23:24:12.466Z,5.98
2024-01-01T23:26:43.728Z,5.96
2024-01-01T23:29:15.333Z,6.18
2024-01-01T23:31:43.800Z,6.01
2024-01-01T23:34:15.071Z,5.96
2024-01-01T23:36:44.331Z,5.89
2024-01-01T23:39:12.702Z,5.92
2024-01-01T23:41:42.278Z,5.74
2024-01-01T23:44:10.555Z,5.80
2024-01-01T23:46:38.783Z,5.85
2024-01-01T23:49:07.102Z,5.96
2024-01-01T23:51:35.376Z,5.76
2024-01-01T23:54:03.719Z,5.84
2024-01-01T23:56:32.047Z,5.81
2024-01-01T23:59:01.756Z,5.84
